createdAt,value
2022-12-29T00:00:14.911Z,3.82
2022-12-29T00:03:18.919Z,4.15
2022-12-29T00:06:22.890Z,4.20
2022-12-29T00:09:26.890Z,4.15
2022-12-29T00:12:30.813Z,4.25
2022-12-29T00:15:34.776Z,4.40
2022-12-29T00:18:39.057Z,4.91
2022-12-29T00:21:43.146Z,4.57
2022-12-29T00:24:46.849Z,4.42
2022-12-29T00:27:50.750Z,4.50
2022-12-29T00:30:54.842Z,4.07
2022-12-29T00:33:58.844Z,4.20
2022-12-29T00:37:02.831Z,3.82
2022-12-29T00:40:06.960Z,3.80
2022-12-29T00:43:10.855Z,4.11
2022-12-29T00:46:19.632Z,4.12
2022-12-29T00:49:24.004Z,3.71
2022-12-29T00:52:28.003Z,3.20
2022-12-29T00:55:31.840Z,3.48
2022-12-29T00:58:35.729Z,4.02
2022-12-29T01:01:39.825Z,3.57
2022-12-29T01:04:43.756Z,3.04
2022-12-29T01:07:48.000Z,3.11
2022-12-29T01:10:52.115Z,2.92
2022-12-29T01:13:56.037Z,2.90
2022-12-29T01:17:00.164Z,2.79
2022-12-29T01:20:04.243Z,3.00
2022-12-29T01:23:08.073Z,2.89
2022-12-29T01:26:11.938Z,3.12
2022-12-29T01:29:15.991Z,3.52
2022-12-29T01:32:19.975Z,3.88
2022-12-29T01:35:24.118Z,3.89
2022-12-29T01:38:27.917Z,3.97
2022-12-29T01:41:31.897Z,3.66
2022-12-29T01:44:36.119Z,3.92
2022-12-29T01:47:40.237Z,4.09
2022-12-29T01:50:44.268Z,4.11
2022-12-29T01:53:48.235Z,3.79
2022-12-29T01:56:52.379Z,3.93
2022-12-29T01:59:56.493Z,3.81
2022-12-29T02:03:00.718Z,3.66
2022-12-29T02:06:04.418Z,4.02
2022-12-29T02:09:08.246Z,3.96
2022-12-29T02:12:12.381Z,3.56
2022-12-29T02:15:16.594Z,2.96
2022-12-29T02:18:22.155Z,3.03
2022-12-29T02:21:26.128Z,2.88
2022-12-29T02:24:30.093Z,3.03
2022-12-29T02:27:34.236Z,2.99
2022-12-29T02:30:38.554Z,3.18
2022-12-29T02:33:42.513Z,3.03
2022-12-29T02:36:46.880Z,2.86
2022-12-29T02:39:51.046Z,2.90
2022-12-29T02:42:55.089Z,2.82
2022-12-29T02:45:59.335Z,2.80
2022-12-29T02:49:03.298Z,2.72
2022-12-29T02:52:07.314Z,2.91
2022-12-29T02:55:11.494Z,2.72
2022-12-29T02:58:15.461Z,2.89
2022-12-29T03:01:19.631Z,2.83
2022-12-29T03:04:23.558Z,2.63
2022-12-29T03:07:27.475Z,2.80
2022-12-29T03:10:31.223Z,2.42
2022-12-29T03:13:35.323Z,2.65
2022-12-29T03:16:39.423Z,2.40
2022-12-29T03:19:43.360Z,2.66
2022-12-29T03:22:47.470Z,2.60
2022-12-29T03:25:51.684Z,2.40
2022-12-29T03:28:55.660Z,2.43
2022-12-29T03:31:59.725Z,2.64
2022-12-29T03:35:03.610Z,2.64
2022-12-29T03:38:07.666Z,2.30
2022-12-29T03:41:11.559Z,2.23
2022-12-29T03:44:15.528Z,2.12
2022-12-29T03:47:19.589Z,2.33
2022-12-29T03:50:24.007Z,2.33
2022-12-29T03:53:28.030Z,2.29
2022-12-29T03:56:32.151Z,2.02
2022-12-29T03:59:35.989Z,2.07
2022-12-29T04:02:43.340Z,1.93
2022-12-29T04:05:47.352Z,2.08
2022-12-29T04:08:51.449Z,1.98
2022-12-29T04:11:55.381Z,1.91
2022-12-29T04:14:59.353Z,1.99
2022-12-29T04:18:03.310Z,1.89
2022-12-29T04:21:07.609Z,1.88
2022-12-29T04:24:11.571Z,2.18
2022-12-29T04:27:15.961Z,2.05
2022-12-29T04:30:19.756Z,1.83
2022-12-29T04:33:23.648Z,1.97
2022-12-29T04:36:30.035Z,2.04
2022-12-29T04:39:34.257Z,2.15
2022-12-29T04:42:38.808Z,2.05
2022-12-29T04:45:42.697Z,1.95
2022-12-29T04:48:46.511Z,2.12
2022-12-29T04:51:50.520Z,2.30
2022-12-29T04:54:54.688Z,2.41
2022-12-29T04:57:58.634Z,2.30
2022-12-29T05:01:02.606Z,2.58
2022-12-29T05:04:06.658Z,2.59
2022-12-29T05:07:12.409Z,2.43
2022-12-29T05:10:16.506Z,2.44
2022-12-29T05:13:22.076Z,2.85
2022-12-29T05:16:25.922Z,2.74
2022-12-29T05:19:29.780Z,3.00
2022-12-29T05:22:33.801Z,3.02
2022-12-29T05:25:37.850Z,2.61
2022-12-29T05:28:41.763Z,2.72
2022-12-29T05:31:45.689Z,2.36
2022-12-29T05:34:49.708Z,2.36
2022-12-29T05:37:53.664Z,2.39
2022-12-29T05:40:57.853Z,2.46
2022-12-29T05:44:01.639Z,2.86
2022-12-29T05:47:08.744Z,2.71
2022-12-29T05:50:12.504Z,3.01
2022-12-29T05:53:16.515Z,2.67
2022-12-29T05:56:21.119Z,2.74
2022-12-29T05:59:25.201Z,2.58
2022-12-29T06:02:29.267Z,2.37
2022-12-29T06:05:33.645Z,2.30
2022-12-29T06:08:37.610Z,2.21
2022-12-29T06:11:41.735Z,2.10
2022-12-29T06:14:45.747Z,2.06
2022-12-29T06:17:49.551Z,2.16
2022-12-29T06:20:54.503Z,2.21
2022-12-29T06:23:58.638Z,2.12
2022-12-29T06:27:02.682Z,2.29
2022-12-29T06:30:06.568Z,2.25
2022-12-29T06:33:10.586Z,2.19
2022-12-29T06:36:14.504Z,2.13
2022-12-29T06:39:18.554Z,2.08
2022-12-29T06:42:22.377Z,2.14
2022-12-29T06:45:26.175Z,2.05
2022-12-29T06:48:30.177Z,2.03
2022-12-29T06:51:34.027Z,1.87
2022-12-29T06:54:38.159Z,1.90
2022-12-29T06:57:44.945Z,1.72
2022-12-29T07:00:49.067Z,2.14
2022-12-29T07:03:53.051Z,2.10
2022-12-29T07:06:57.175Z,2.05
2022-12-29T07:10:01.473Z,2.16
2022-12-29T07:13:05.489Z,1.89
2022-12-29T07:16:09.403Z,1.94
2022-12-29T07:19:13.427Z,1.97
2022-12-29T07:22:18.200Z,2.11
2022-12-29T07:25:22.368Z,1.99
2022-12-29T07:28:26.295Z,2.13
2022-12-29T07:31:30.490Z,2.05
2022-12-29T07:34:34.805Z,2.17
2022-12-29T07:37:38.840Z,1.82
2022-12-29T07:40:43.093Z,1.97
2022-12-29T07:43:47.035Z,1.95
2022-12-29T07:46:56.559Z,2.15
2022-12-29T07:50:01.493Z,2.14
2022-12-29T07:53:05.608Z,1.86
2022-12-29T07:56:09.705Z,1.86
2022-12-29T07:59:13.827Z,1.92
2022-12-29T08:02:18.077Z,2.06
2022-12-29T08:05:21.953Z,2.01
2022-12-29T08:08:25.859Z,2.08
2022-12-29T08:11:29.903Z,2.14
2022-12-29T08:14:33.984Z,1.99
2022-12-29T08:17:37.901Z,2.03
2022-12-29T08:20:41.947Z,1.90
2022-12-29T08:23:45.980Z,2.09
2022-12-29T08:26:50.136Z,2.38
2022-12-29T08:29:54.407Z,2.24
2022-12-29T08:32:58.263Z,2.20
2022-12-29T08:36:02.326Z,2.09
2022-12-29T08:39:06.203Z,2.11
2022-12-29T08:42:10.163Z,2.25
2022-12-29T08:45:13.975Z,2.19
2022-12-29T08:48:17.944Z,2.11
2022-12-29T08:51:24.630Z,2.07
2022-12-29T08:54:29.414Z,2.70
2022-12-29T08:57:33.466Z,2.75
2022-12-29T09:00:37.605Z,2.25
2022-12-29T09:07:05.351Z,2.52
2022-12-29T09:10:08.882Z,2.31
2022-12-29T09:13:13.054Z,2.51
2022-12-29T09:16:16.962Z,2.21
2022-12-29T09:19:20.801Z,2.23
2022-12-29T09:22:24.797Z,2.16
2022-12-29T09:25:29.102Z,2.16
2022-12-29T09:28:33.056Z,2.12
2022-12-29T09:31:38.435Z,2.18
2022-12-29T09:34:42.109Z,2.39
2022-12-29T09:37:46.114Z,2.36
2022-12-29T09:40:50.148Z,2.24
2022-12-29T09:43:54.317Z,2.26
2022-12-29T09:46:58.546Z,3.51
2022-12-29T09:50:02.488Z,2.67
2022-12-29T09:53:06.739Z,2.29
2022-12-29T09:56:11.031Z,2.23
2022-12-29T09:59:14.987Z,2.40
2022-12-29T10:02:19.009Z,2.22
2022-12-29T10:05:23.213Z,2.42
2022-12-29T10:08:28.166Z,2.50
2022-12-29T10:11:32.355Z,2.49
2022-12-29T10:14:36.565Z,2.39
2022-12-29T10:17:39.974Z,2.43
2022-12-29T10:20:44.092Z,2.21
2022-12-29T10:23:48.231Z,2.45
2022-12-29T10:26:52.050Z,2.20
2022-12-29T10:29:55.860Z,2.33
2022-12-29T10:33:01.108Z,2.03
2022-12-29T10:36:05.352Z,2.16
2022-12-29T10:39:09.465Z,2.48
2022-12-29T10:42:13.818Z,2.18
2022-12-29T10:45:17.831Z,2.23
2022-12-29T10:48:23.097Z,1.89
2022-12-29T10:51:28.683Z,2.16
2022-12-29T10:54:32.836Z,2.42
2022-12-29T10:57:36.985Z,2.40
2022-12-29T11:00:41.096Z,2.34
2022-12-29T11:03:45.021Z,2.15
2022-12-29T11:06:49.099Z,2.16
2022-12-29T11:09:53.321Z,2.15
2022-12-29T11:12:57.384Z,2.17
2022-12-29T11:16:01.411Z,1.90
2022-12-29T11:19:05.319Z,2.03
2022-12-29T11:22:09.415Z,2.23
2022-12-29T11:25:13.515Z,2.22
2022-12-29T11:28:17.748Z,1.95
2022-12-29T11:31:21.491Z,2.09
2022-12-29T11:34:25.535Z,1.95
2022-12-29T11:37:29.711Z,1.90
2022-12-29T11:40:33.907Z,2.14
2022-12-29T11:43:37.895Z,2.03
2022-12-29T11:46:41.881Z,2.10
2022-12-29T11:49:47.061Z,2.18
2022-12-29T11:52:51.244Z,2.28
2022-12-29T11:55:55.147Z,1.89
2022-12-29T11:58:59.032Z,1.84
2022-12-29T12:02:03.209Z,1.85
2022-12-29T12:05:07.149Z,1.97
2022-12-29T12:08:13.042Z,1.94
2022-12-29T12:11:20.227Z,1.91
2022-12-29T12:14:24.421Z,1.86
2022-12-29T12:17:28.372Z,2.35
2022-12-29T12:20:32.512Z,2.29
2022-12-29T12:23:36.330Z,2.24
2022-12-29T12:26:40.304Z,2.25
2022-12-29T12:29:44.286Z,2.54
2022-12-29T12:32:48.007Z,2.41
2022-12-29T12:35:51.988Z,2.52
2022-12-29T12:38:56.147Z,2.38
2022-12-29T12:41:59.978Z,2.44
2022-12-29T12:45:05.198Z,2.35
2022-12-29T12:48:09.024Z,2.54
2022-12-29T12:51:13.037Z,2.32
2022-12-29T12:54:17.317Z,2.31
2022-12-29T12:57:21.167Z,2.14
2022-12-29T13:00:25.114Z,2.49
2022-12-29T13:03:29.550Z,2.24
2022-12-29T13:06:33.636Z,2.37
2022-12-29T13:09:37.644Z,2.35
2022-12-29T13:12:41.542Z,2.64
2022-12-29T13:15:45.327Z,2.72
2022-12-29T13:18:50.847Z,2.84
2022-12-29T13:22:01.970Z,2.62
2022-12-29T13:25:09.577Z,2.55
2022-12-29T13:28:13.983Z,2.36
2022-12-29T13:31:17.807Z,2.13
2022-12-29T13:34:21.912Z,2.80
2022-12-29T13:37:26.989Z,2.12
2022-12-29T13:40:30.719Z,2.22
2022-12-29T13:43:34.886Z,2.46
2022-12-29T13:46:39.102Z,2.22
2022-12-29T13:49:43.172Z,3.66
2022-12-29T13:52:47.175Z,2.12
2022-12-29T13:55:50.822Z,2.18
2022-12-29T13:58:54.721Z,2.31
2022-12-29T14:01:59.155Z,2.14
2022-12-29T14:05:03.219Z,2.57
2022-12-29T14:08:07.415Z,2.43
2022-12-29T14:11:11.555Z,2.48
2022-12-29T14:14:15.909Z,2.74
2022-12-29T14:17:19.728Z,2.36
2022-12-29T14:20:23.963Z,2.36
2022-12-29T14:23:27.720Z,2.47
2022-12-29T14:26:31.821Z,2.28
2022-12-29T14:29:36.026Z,2.69
2022-12-29T14:32:40.090Z,2.21
2022-12-29T14:35:44.016Z,2.36
2022-12-29T14:38:48.176Z,2.49
2022-12-29T14:41:52.163Z,2.57
2022-12-29T14:44:56.361Z,2.63
2022-12-29T14:48:00.551Z,2.52
2022-12-29T14:51:04.385Z,2.54
2022-12-29T14:54:08.491Z,2.40
2022-12-29T14:57:12.641Z,8.07
2022-12-29T15:00:16.870Z,19.89
2022-12-29T15:03:20.984Z,3.91
2022-12-29T15:06:24.862Z,2.94
2022-12-29T15:09:28.830Z,2.63
2022-12-29T15:12:32.835Z,2.85
2022-12-29T15:15:36.874Z,3.22
2022-12-29T15:18:40.793Z,2.90
2022-12-29T15:21:44.832Z,3.06
2022-12-29T15:24:49.263Z,2.92
2022-12-29T15:27:53.103Z,3.53
2022-12-29T15:30:57.201Z,3.39
2022-12-29T15:34:01.382Z,3.41
2022-12-29T15:37:05.293Z,3.39
2022-12-29T15:40:09.455Z,3.63
2022-12-29T15:43:13.408Z,3.39
2022-12-29T15:46:17.199Z,3.45
2022-12-29T15:49:21.160Z,3.19
2022-12-29T15:52:25.304Z,2.97
2022-12-29T15:55:29.530Z,2.93
2022-12-29T15:58:33.710Z,3.12
2022-12-29T16:01:37.726Z,3.26
2022-12-29T16:05:01.403Z,3.36
2022-12-29T16:08:05.758Z,3.24
2022-12-29T16:11:09.839Z,3.19
2022-12-29T16:14:13.955Z,3.17
2022-12-29T16:17:18.086Z,3.38
2022-12-29T16:20:22.001Z,3.38
2022-12-29T16:23:26.182Z,3.90
2022-12-29T16:26:30.249Z,4.00
2022-12-29T16:29:34.248Z,4.03
2022-12-29T16:32:38.264Z,3.68
2022-12-29T16:35:42.842Z,3.72
2022-12-29T16:38:46.609Z,3.95
2022-12-29T16:41:50.768Z,3.91
2022-12-29T16:44:54.688Z,3.52
2022-12-29T16:47:58.712Z,3.86
2022-12-29T16:51:02.665Z,3.55
2022-12-29T16:54:06.702Z,3.45
2022-12-29T16:57:10.859Z,3.53
2022-12-29T17:00:14.783Z,3.63
2022-12-29T17:03:18.843Z,4.22
2022-12-29T17:06:22.810Z,3.54
2022-12-29T17:09:26.664Z,3.55
2022-12-29T17:12:30.581Z,6.47
2022-12-29T17:15:34.505Z,10.22
2022-12-29T17:18:38.866Z,9.05
2022-12-29T17:21:43.038Z,6.93
2022-12-29T17:24:47.149Z,10.05
2022-12-29T17:27:51.162Z,7.91
2022-12-29T17:30:55.322Z,9.33
2022-12-29T17:33:59.512Z,10.75
2022-12-29T17:37:03.271Z,9.09
2022-12-29T17:40:07.163Z,7.43
2022-12-29T17:43:11.193Z,8.53
2022-12-29T17:46:15.487Z,8.16
2022-12-29T17:49:19.464Z,5.94
2022-12-29T17:52:23.372Z,5.69
2022-12-29T17:55:32.763Z,5.83
2022-12-29T17:58:40.810Z,5.47
2022-12-29T18:01:45.815Z,5.54
2022-12-29T18:04:49.766Z,5.47
2022-12-29T18:07:53.711Z,6.21
2022-12-29T18:10:57.604Z,5.90
2022-12-29T18:14:01.851Z,5.53
2022-12-29T18:17:06.031Z,5.78
2022-12-29T18:20:09.997Z,6.11
2022-12-29T18:23:14.221Z,5.74
2022-12-29T18:26:22.289Z,6.06
2022-12-29T18:29:31.339Z,5.61
2022-12-29T18:32:35.329Z,5.82
2022-12-29T18:35:39.477Z,6.13
2022-12-29T18:38:43.540Z,5.80
2022-12-29T18:41:47.774Z,5.71
2022-12-29T18:44:52.091Z,5.88
2022-12-29T18:47:56.297Z,5.79
2022-12-29T18:51:00.343Z,6.04
2022-12-29T18:54:04.321Z,5.69
2022-12-29T18:57:08.507Z,6.41
2022-12-29T19:00:12.498Z,5.71
2022-12-29T19:03:16.421Z,5.73
2022-12-29T19:06:20.636Z,5.54
2022-12-29T19:09:24.523Z,5.48
2022-12-29T19:12:28.782Z,5.02
2022-12-29T19:15:33.116Z,5.22
2022-12-29T19:18:47.434Z,4.65
2022-12-29T19:21:52.721Z,4.50
2022-12-29T19:25:00.232Z,4.36
2022-12-29T19:28:04.208Z,4.38
2022-12-29T19:31:08.368Z,4.39
2022-12-29T19:34:12.181Z,4.19
2022-12-29T19:37:16.120Z,4.04
2022-12-29T19:40:20.288Z,3.75
2022-12-29T19:43:24.255Z,3.65
2022-12-29T19:46:28.440Z,3.55
2022-12-29T19:49:32.307Z,3.39
2022-12-29T19:52:36.283Z,3.38
2022-12-29T19:55:40.448Z,3.14
2022-12-29T19:58:47.533Z,3.56
2022-12-29T20:01:52.048Z,3.22
2022-12-29T20:04:56.345Z,3.17
2022-12-29T20:08:00.304Z,3.48
2022-12-29T20:11:04.437Z,3.22
2022-12-29T20:14:08.760Z,3.78
2022-12-29T20:17:12.881Z,3.80
2022-12-29T20:20:16.942Z,3.92
2022-12-29T20:23:20.842Z,4.03
2022-12-29T20:26:24.881Z,3.96
2022-12-29T20:29:29.069Z,4.24
2022-12-29T20:32:33.453Z,4.33
2022-12-29T20:35:37.585Z,3.78
2022-12-29T20:38:43.555Z,3.62
2022-12-29T20:41:47.604Z,3.67
2022-12-29T20:44:51.713Z,3.81
2022-12-29T20:47:55.949Z,4.08
2022-12-29T20:50:59.955Z,5.36
2022-12-29T20:54:04.075Z,4.23
2022-12-29T20:57:08.117Z,4.57
2022-12-29T21:00:14.896Z,4.65
2022-12-29T21:03:21.389Z,4.97
2022-12-29T21:06:25.201Z,5.21
2022-12-29T21:09:29.459Z,5.13
2022-12-29T21:12:33.571Z,4.60
2022-12-29T21:15:37.451Z,4.37
2022-12-29T21:18:41.629Z,8.50
2022-12-29T21:21:45.566Z,3.41
2022-12-29T21:24:49.425Z,6.14
2022-12-29T21:27:53.278Z,3.33
2022-12-29T21:30:57.279Z,2.35
2022-12-29T21:34:01.505Z,1.85
2022-12-29T21:37:05.490Z,2.89
2022-12-29T21:40:09.414Z,5.74
2022-12-29T21:43:13.431Z,5.51
2022-12-29T21:46:17.506Z,2.84
2022-12-29T21:49:21.437Z,2.79
2022-12-29T21:52:25.552Z,2.43
2022-12-29T21:55:29.070Z,2.90
2022-12-29T21:58:33.264Z,2.89
2022-12-29T22:01:37.455Z,2.34
2022-12-29T22:04:41.576Z,2.48
2022-12-29T22:07:45.298Z,1.39
2022-12-29T22:10:49.405Z,1.01
2022-12-29T22:13:53.713Z,1.40
2022-12-29T22:17:00.774Z,4.73
2022-12-29T22:20:04.912Z,5.77
2022-12-29T22:23:08.871Z,1.48
2022-12-29T22:26:12.794Z,1.71
2022-12-29T22:29:17.439Z,2.18
2022-12-29T22:32:21.373Z,5.53
2022-12-29T22:35:25.342Z,2.45
2022-12-29T22:38:29.275Z,2.43
2022-12-29T22:41:33.149Z,2.63
2022-12-29T22:44:37.417Z,3.95
2022-12-29T22:47:41.488Z,4.40
2022-12-29T22:50:45.517Z,4.65
2022-12-29T22:53:49.719Z,4.59
2022-12-29T22:56:53.657Z,4.22
2022-12-29T22:59:57.508Z,3.87
2022-12-29T23:03:02.300Z,4.21
2022-12-29T23:06:06.249Z,4.18
2022-12-29T23:09:10.193Z,4.28
2022-12-29T23:12:15.506Z,4.67
2022-12-29T23:15:19.562Z,4.44
2022-12-29T23:18:23.656Z,3.97
2022-12-29T23:21:27.644Z,4.24
2022-12-29T23:24:31.692Z,4.10
2022-12-29T23:27:35.872Z,4.14
2022-12-29T23:30:39.905Z,4.19
2022-12-29T23:33:43.891Z,4.46
2022-12-29T23:36:47.872Z,4.41
2022-12-29T23:39:51.996Z,4.25
2022-12-29T23:42:55.998Z,4.42
2022-12-29T23:46:00.154Z,4.32
2022-12-29T23:49:04.088Z,4.52
2022-12-29T23:52:08.521Z,4.07
2022-12-29T23:55:12.443Z,4.32
2022-12-29T23:58:16.336Z,4.17
